WARNING - Change wsUserSettings.php: $SITE["topfolder"] from : weather28/ to: /home/www/egeskovvejret.dk/weather28/
Welcome to our new website - Welkom op onze vernieuwde website - Bienvenue sur notre nouveau site web - Willkommen auf unserer neuen Website
Check our progress frequently. Prüfen Sie unsere Fortschritte regelmäßig. Consultez notre progression fréquemment. Komt u straks nog eens terug

This is an optional block. Switch it on/off in your settings-file: $SITE['bannerTop'] = false; or $SITE['bannerBottom'] = false;

You can display ads, any other important text or photo’s using text / html or PHP code.

You can place one or more at the top and or bottom and it can all be different for content / size .


My webcam  My webcam


Visit our other weather sites:

Template documentation
and downloads

And another site



Nearby METAR Reports


Warning: A non-numeric value encountered in /home/www/egeskovvejret.dk/weather28/metar/metarDisplay.php on line 166

Warning: A non-numeric value encountered in /home/www/egeskovvejret.dk/weather28/metar/metarDisplay.php on line 166

Warning: A non-numeric value encountered in /home/www/egeskovvejret.dk/weather28/metar/metarDisplay.php on line 166

Warning: A non-numeric value encountered in /home/www/egeskovvejret.dk/weather28/metar/metarDisplay.php on line 166

Warning: A non-numeric value encountered in /home/www/egeskovvejret.dk/weather28/metar/metarDisplay.php on line 166
   
EHVK - Volkel Rnlafb, Netherlands
Distance from station: SW 18 km
Updated: 24-07-2019 10:55
Clear  
Clear  
   Wind: SE 7.4 km/h
Wind: SE 7.4 km/h
Temperature: 32°C
Heat Index: 32°C
Dew Point: 17°C
Humidity: 41%
Barometer: 1014 hPa
Clouds: Clear
Visibility: More than 10 km
Cloud details: Clear
EHVK 240855Z AUTO 13004KT 090V200 9999 NCD 32/17 Q1014 BLU 09003KT CAVOK BECMG 15005KT
EDLV - Niederrhein, Germany
Distance from station: SE 25 km
Updated: 24-07-2019 10:50
Clear  
Clear  
   Wind: SSE 11.1 km/h
Wind: SSE 11.1 km/h
Temperature: 32°C
Heat Index: 32°C
Dew Point: 17°C
Humidity: 41%
Barometer: 1014 hPa
Visibility: More than 10 km
Cloud details: Clear
EDLV 240850Z 15006KT 110V180 CAVOK 32/17 Q1014
EHDL - Deelen Rnlafb, Netherlands
Distance from station: N 35 km
Updated: 24-07-2019 10:55
Clear  
Clear  
   Wind: SSE 9.3 km/h
Wind: SSE 9.3 km/h
Temperature: 31°C
Heat Index: 31°C
Dew Point: 17°C
Humidity: 43%
Barometer: 1014 hPa
Clouds: Clear
Visibility: More than 10 km
Cloud details: Clear
EHDL 240855Z AUTO 16005KT 080V220 9999 NCD 31/17 Q1014 BLU
EHEH - Eindhoven Rnlafb, Netherlands
Distance from station: SW 48 km
Updated: 24-07-2019 10:55
Clear  
Clear  
   Wind: SSE 11.1 km/h
Wind: SSE 11.1 km/h
Temperature: 32°C
Dew Point: 14°C
Humidity: 33%
Barometer: 1014 hPa
Clouds: Clear
Visibility: More than 10 km
Cloud details: Clear
EHEH 240855Z AUTO 16006KT 110V210 9999 // NCD 32/14 Q1014 RE// 14005KT CAVOK
EHGR - Gilze-Rijen Rnla, Netherlands
Distance from station: WSW 70 km
Updated: 24-07-2019 10:55
Clear  
Clear  
   Wind: SE 11.1 km/h
Wind: SE 11.1 km/h
Temperature: 32°C
Dew Point: 16°C
Humidity: 38%
Barometer: 1013 hPa
Clouds: Clear
Visibility: More than 10 km
Cloud details: Clear
EHGR 240855Z AUTO 13006KT 100V180 9999 NCD 32/16 Q1013 BLU 15005KT CAVOK
EBBL - Kleine-Brogel(Ba, Belgium
Distance from station: SSW 71 km
Updated: 24-07-2019 10:25
Few Clouds  
Few Clouds  
   Wind: SSE 5.6 km/h
Wind: SSE 5.6 km/h
Temperature: 32°C
Dew Point: 15°C
Humidity: 36%
Barometer: 1014 hPa
Clouds: Few Clouds
Visibility: More than 10 km
Cloud details: Few Clouds 30000 ft
EBBL 240825Z 15003KT 9999 FEW300 32/15 Q1014 BLU BLU

Script developed by  Saratoga-weather.org Adapted for the template by  Weerstation Leuven


This is an optional block. Switch it on/off in your settings-file: $SITE['bannerTop'] = false; or $SITE['bannerBottom'] = false;

You can display ads, any other important text or photo’s using text / html or PHP code.

You can place one or more at the top and or bottom and it can all be different for content / size .